Time;durP1;ratioP1;P1;durP2;ratioP2;P2;SDS_P1;SDS_P2;PMS_P1;PMS_P2;Temp;Humidity;BMP_temperature;BMP_pressure;BME280_temperature;BME280_humidity;BME280_pressure;Samples;Min_cycle;Max_cycle;Signal;HPM_P1;HPM_P2
2023/08/04 00:00:12;;;;;;;7.35;2.38;;;;;;;;;;5006512;28;20046;-73
2023/08/04 00:02:38;;;;;;;4.57;2.20;;;;;;;;;;5008697;28;20042;-73
2023/08/04 00:05:05;;;;;;;7.20;2.42;;;;;;;;;;5014238;28;20049;-73
2023/08/04 00:07:31;;;;;;;4.47;2.00;;;;;;;;;;5008999;28;20050;-75
2023/08/04 00:09:57;;;;;;;5.60;2.55;;;;;;;;;;5006159;28;20371;-74
2023/08/04 00:12:24;;;;;;;6.93;2.28;;;;;;;;;;5014585;28;20512;-75
2023/08/04 00:14:50;;;;;;;6.72;2.20;;;;;;;;;;4992319;28;20050;-74
2023/08/04 00:17:16;;;;;;;5.10;1.95;;;;;;;;;;5000345;28;20095;-74
2023/08/04 00:19:43;;;;;;;3.97;2.30;;;;;;;;;;5002420;28;20042;-74
2023/08/04 00:22:09;;;;;;;3.58;2.05;;;;;;;;;;5005360;28;20046;-74
2023/08/04 00:24:35;;;;;;;2.67;2.00;;;;;;;;;;5000671;28;20042;-74
2023/08/04 00:27:02;;;;;;;3.72;1.90;;;;;;;;;;5004862;28;20183;-75
2023/08/04 00:29:28;;;;;;;1.98;1.70;;;;;;;;;;4999474;28;20565;-75
2023/08/04 00:31:54;;;;;;;1.85;1.70;;;;;;;;;;5002950;28;20069;-74
2023/08/04 00:34:20;;;;;;;2.75;1.80;;;;;;;;;;5000651;28;20394;-74
2023/08/04 00:36:47;;;;;;;2.35;1.60;;;;;;;;;;5007848;28;20103;-74
2023/08/04 00:39:16;;;;;;;5.28;1.80;;;;;;;;;;5008724;28;20053;-75
2023/08/04 00:41:42;;;;;;;4.07;1.75;;;;;;;;;;5011865;28;20045;-74
2023/08/04 00:44:09;;;;;;;4.28;1.98;;;;;;;;;;5007584;28;20085;-74
2023/08/04 00:46:36;;;;;;;7.28;2.20;;;;;;;;;;5007800;28;20057;-75
2023/08/04 00:49:02;;;;;;;2.92;1.80;;;;;;;;;;5011411;28;20046;-74
2023/08/04 00:51:30;;;;;;;3.28;1.77;;;;;;;;;;5011926;28;20385;-74
2023/08/04 00:53:56;;;;;;;2.03;1.65;;;;;;;;;;5011961;28;20548;-74
2023/08/04 00:56:22;;;;;;;2.83;1.70;;;;;;;;;;5008146;28;20041;-74
2023/08/04 00:58:48;;;;;;;1.60;1.50;;;;;;;;;;4997368;28;20050;-74
2023/08/04 01:01:14;;;;;;;1.70;1.60;;;;;;;;;;4999509;28;20470;-74
2023/08/04 01:03:41;;;;;;;2.30;1.80;;;;;;;;;;5005324;28;20832;-74
2023/08/04 01:06:07;;;;;;;1.60;1.50;;;;;;;;;;4998636;28;20128;-74
2023/08/04 01:08:34;;;;;;;2.92;1.70;;;;;;;;;;4999343;28;20054;-74
2023/08/04 01:11:12;;;;;;;1.85;1.50;;;;;;;;;;5006052;28;20038;-74
2023/08/04 01:13:39;;;;;;;3.03;1.70;;;;;;;;;;5003464;28;20132;-74
2023/08/04 01:16:07;;;;;;;2.25;1.77;;;;;;;;;;5008295;28;20176;-74
2023/08/04 01:18:33;;;;;;;4.25;1.85;;;;;;;;;;4993322;28;20053;-75
2023/08/04 01:21:06;;;;;;;5.72;2.00;;;;;;;;;;4993492;28;20049;-74
2023/08/04 01:23:33;;;;;;;3.05;2.03;;;;;;;;;;5006853;28;20057;-74
2023/08/04 01:26:00;;;;;;;3.50;2.00;;;;;;;;;;5008467;28;20132;-74
2023/08/04 01:28:26;;;;;;;5.65;2.17;;;;;;;;;;5005669;28;20057;-74
2023/08/04 01:30:55;;;;;;;6.22;2.35;;;;;;;;;;5005017;28;20045;-75
2023/08/04 01:33:21;;;;;;;6.00;2.40;;;;;;;;;;5002651;28;20080;-74
2023/08/04 01:35:47;;;;;;;5.22;2.53;;;;;;;;;;4996569;28;20041;-74
2023/08/04 01:38:14;;;;;;;5.28;2.45;;;;;;;;;;5002054;28;20046;-74
2023/08/04 01:40:40;;;;;;;4.00;2.42;;;;;;;;;;5008110;28;20046;-75
2023/08/04 01:43:06;;;;;;;5.55;2.92;;;;;;;;;;5027079;28;20067;-74
2023/08/04 01:45:32;;;;;;;6.20;2.83;;;;;;;;;;5020245;28;20050;-74
2023/08/04 01:47:58;;;;;;;9.38;2.72;;;;;;;;;;5031876;28;20044;-75
2023/08/04 01:50:24;;;;;;;6.28;2.90;;;;;;;;;;5010725;28;20145;-74
2023/08/04 01:52:50;;;;;;;4.90;2.55;;;;;;;;;;5006802;28;20132;-74
2023/08/04 01:55:16;;;;;;;7.28;2.78;;;;;;;;;;5005892;28;20128;-75
2023/08/04 01:57:42;;;;;;;5.28;2.67;;;;;;;;;;5009807;28;20053;-75
2023/08/04 02:00:08;;;;;;;6.05;2.90;;;;;;;;;;5009069;28;20030;-75
2023/08/04 02:02:35;;;;;;;9.73;2.90;;;;;;;;;;5007328;28;20057;-74
2023/08/04 02:05:01;;;;;;;7.30;2.70;;;;;;;;;;5024970;28;20042;-74
2023/08/04 02:07:27;;;;;;;4.53;2.58;;;;;;;;;;5009752;28;20061;-75
2023/08/04 02:09:53;;;;;;;6.60;3.00;;;;;;;;;;5007267;28;20053;-75
2023/08/04 02:12:19;;;;;;;5.47;2.67;;;;;;;;;;5005788;28;20160;-75
2023/08/04 02:14:45;;;;;;;6.55;3.17;;;;;;;;;;5004050;28;20045;-75
2023/08/04 02:17:12;;;;;;;7.93;3.40;;;;;;;;;;4999550;28;20042;-75
2023/08/04 02:19:38;;;;;;;8.05;3.00;;;;;;;;;;5000541;28;20057;-74
2023/08/04 02:22:04;;;;;;;12.00;3.38;;;;;;;;;;4997089;28;21945;-75
2023/08/04 02:24:30;;;;;;;4.93;3.00;;;;;;;;;;4994014;28;20033;-75
2023/08/04 02:26:56;;;;;;;6.03;3.05;;;;;;;;;;4997397;28;20096;-75
2023/08/04 02:29:22;;;;;;;4.90;2.85;;;;;;;;;;4991537;28;20057;-75
2023/08/04 02:31:48;;;;;;;7.07;2.30;;;;;;;;;;4993768;28;20068;-74
2023/08/04 02:34:14;;;;;;;4.20;1.90;;;;;;;;;;4999225;28;20050;-74
2023/08/04 02:36:40;;;;;;;4.18;1.90;;;;;;;;;;4997600;28;20171;-75
2023/08/04 02:39:07;;;;;;;7.13;1.88;;;;;;;;;;5007680;28;20042;-74
2023/08/04 02:41:33;;;;;;;3.75;2.03;;;;;;;;;;5006123;28;20081;-75
2023/08/04 02:44:02;;;;;;;5.28;2.00;;;;;;;;;;5007579;28;20041;-74
2023/08/04 02:46:28;;;;;;;5.28;2.38;;;;;;;;;;5003989;28;20405;-75
2023/08/04 02:48:54;;;;;;;5.05;2.65;;;;;;;;;;5006797;28;20050;-75
2023/08/04 02:51:20;;;;;;;3.95;2.47;;;;;;;;;;5008938;28;20084;-75
2023/08/04 02:53:47;;;;;;;3.08;2.30;;;;;;;;;;5009006;28;20060;-74
2023/08/04 02:56:14;;;;;;;7.55;2.63;;;;;;;;;;5008756;28;20831;-75
2023/08/04 02:58:41;;;;;;;2.25;1.95;;;;;;;;;;5009329;28;20512;-75
2023/08/04 03:01:07;;;;;;;4.38;2.05;;;;;;;;;;4999594;28;20045;-75
2023/08/04 03:03:34;;;;;;;1.98;1.80;;;;;;;;;;5002257;28;20041;-74
2023/08/04 03:06:01;;;;;;;2.05;1.60;;;;;;;;;;5004117;28;20069;-75
2023/08/04 03:08:27;;;;;;;1.70;1.60;;;;;;;;;;5008125;28;20612;-75
2023/08/04 03:10:53;;;;;;;3.10;1.83;;;;;;;;;;5006772;28;20137;-75
2023/08/04 03:13:20;;;;;;;3.05;1.90;;;;;;;;;;5007794;28;20132;-75
2023/08/04 03:15:46;;;;;;;3.42;2.10;;;;;;;;;;5009013;28;20049;-75
2023/08/04 03:18:12;;;;;;;3.45;2.17;;;;;;;;;;5009286;28;20042;-75
2023/08/04 03:20:39;;;;;;;2.88;1.92;;;;;;;;;;5006121;28;20050;-75
2023/08/04 03:23:06;;;;;;;3.13;1.80;;;;;;;;;;5006422;28;20048;-75
2023/08/04 03:25:32;;;;;;;3.42;1.90;;;;;;;;;;5005516;28;20109;-75
2023/08/04 03:27:58;;;;;;;3.67;2.00;;;;;;;;;;5007121;28;20085;-75
2023/08/04 03:30:24;;;;;;;5.25;1.85;;;;;;;;;;5005751;28;20057;-75
2023/08/04 03:32:50;;;;;;;3.35;2.00;;;;;;;;;;5009343;28;20050;-75
2023/08/04 03:35:16;;;;;;;4.45;2.42;;;;;;;;;;5005833;28;20048;-75
2023/08/04 03:37:42;;;;;;;4.53;2.40;;;;;;;;;;5001583;28;20038;-75
2023/08/04 03:40:08;;;;;;;4.53;2.40;;;;;;;;;;4995594;28;20101;-75
2023/08/04 03:42:37;;;;;;;5.45;3.13;;;;;;;;;;5004284;28;20049;-75
2023/08/04 03:45:03;;;;;;;5.72;2.58;;;;;;;;;;5004585;28;20112;-75
2023/08/04 03:47:29;;;;;;;4.47;2.67;;;;;;;;;;5009590;28;20402;-75
2023/08/04 03:49:56;;;;;;;3.72;2.50;;;;;;;;;;5010080;28;20053;-75
2023/08/04 03:52:22;;;;;;;4.97;2.63;;;;;;;;;;5021060;28;20053;-75
2023/08/04 03:54:48;;;;;;;5.70;2.80;;;;;;;;;;5009424;28;20050;-75
2023/08/04 03:57:14;;;;;;;6.45;3.05;;;;;;;;;;5010761;28;20052;-75
2023/08/04 03:59:40;;;;;;;5.82;2.97;;;;;;;;;;5024169;28;20137;-75
2023/08/04 04:02:06;;;;;;;4.28;3.50;;;;;;;;;;5006669;28;20542;-75
2023/08/04 04:04:32;;;;;;;7.38;3.13;;;;;;;;;;5008312;28;20046;-75
2023/08/04 04:06:58;;;;;;;4.65;2.95;;;;;;;;;;5012112;28;20117;-75
2023/08/04 04:09:24;;;;;;;3.40;2.35;;;;;;;;;;5014054;28;20077;-76
2023/08/04 04:11:50;;;;;;;4.90;2.50;;;;;;;;;;5012360;28;20069;-76
2023/08/04 04:14:16;;;;;;;3.83;2.10;;;;;;;;;;5012371;28;20517;-75
2023/08/04 04:16:42;;;;;;;2.67;1.60;;;;;;;;;;5006183;28;21074;-75
2023/08/04 04:19:08;;;;;;;2.10;1.80;;;;;;;;;;5011183;28;20548;-75
2023/08/04 04:21:34;;;;;;;2.97;1.80;;;;;;;;;;5007810;28;20042;-75
2023/08/04 04:24:00;;;;;;;1.98;1.88;;;;;;;;;;5009662;28;20042;-76
2023/08/04 04:26:26;;;;;;;2.90;2.22;;;;;;;;;;5009694;28;20042;-75
2023/08/04 04:28:52;;;;;;;3.90;2.60;;;;;;;;;;5007881;28;20160;-76
2023/08/04 04:31:19;;;;;;;3.60;2.50;;;;;;;;;;5007216;28;20042;-75
2023/08/04 04:33:46;;;;;;;5.50;3.38;;;;;;;;;;5012564;28;20054;-75
2023/08/04 04:36:12;;;;;;;7.13;3.05;;;;;;;;;;5010153;28;20057;-75
2023/08/04 04:38:38;;;;;;;4.90;2.90;;;;;;;;;;4998931;28;20113;-75
2023/08/04 04:41:04;;;;;;;7.55;3.40;;;;;;;;;;5002805;28;20137;-75
2023/08/04 04:43:30;;;;;;;4.55;2.70;;;;;;;;;;5002140;28;20042;-76
2023/08/04 04:45:56;;;;;;;7.53;3.13;;;;;;;;;;5009174;28;20048;-75
2023/08/04 04:48:23;;;;;;;6.40;2.58;;;;;;;;;;5008939;28;20081;-76
2023/08/04 04:50:53;;;;;;;4.82;2.78;;;;;;;;;;5008010;28;20058;-76
2023/08/04 04:53:19;;;;;;;4.55;2.83;;;;;;;;;;5000850;28;20074;-75
2023/08/04 04:55:45;;;;;;;5.85;2.90;;;;;;;;;;5007453;28;20096;-76
2023/08/04 04:58:14;;;;;;;5.72;2.90;;;;;;;;;;5013093;28;20045;-75
2023/08/04 05:00:41;;;;;;;6.65;2.70;;;;;;;;;;4999845;28;20500;-75
2023/08/04 05:03:10;;;;;;;4.80;2.70;;;;;;;;;;5007948;28;20397;-75
2023/08/04 05:05:36;;;;;;;4.13;2.33;;;;;;;;;;4996364;28;20391;-75
2023/08/04 05:08:02;;;;;;;5.88;2.78;;;;;;;;;;5002924;28;20038;-75
2023/08/04 05:10:28;;;;;;;6.05;2.72;;;;;;;;;;5007726;28;20042;-76
2023/08/04 05:12:55;;;;;;;3.10;2.58;;;;;;;;;;5011373;28;20198;-75
2023/08/04 05:15:21;;;;;;;4.47;2.42;;;;;;;;;;5011359;28;20141;-76
2023/08/04 05:17:47;;;;;;;4.13;2.40;;;;;;;;;;5007728;28;20188;-75
2023/08/04 05:20:13;;;;;;;4.20;2.67;;;;;;;;;;5008548;28;20045;-75
2023/08/04 05:22:40;;;;;;;4.53;2.78;;;;;;;;;;5008748;28;20041;-75
2023/08/04 05:25:06;;;;;;;5.45;3.20;;;;;;;;;;5015117;28;20046;-75
2023/08/04 05:27:32;;;;;;;6.65;2.97;;;;;;;;;;5008275;28;20073;-75
2023/08/04 05:29:58;;;;;;;5.75;3.20;;;;;;;;;;4982756;28;20560;-75
2023/08/04 05:32:24;;;;;;;5.15;2.75;;;;;;;;;;5011555;28;20493;-75
2023/08/04 05:34:50;;;;;;;5.32;2.95;;;;;;;;;;5009762;28;20049;-75
2023/08/04 05:37:16;;;;;;;3.85;2.63;;;;;;;;;;5009299;28;20051;-75
2023/08/04 05:39:42;;;;;;;5.80;3.08;;;;;;;;;;4986779;28;20042;-75
2023/08/04 05:42:08;;;;;;;6.47;3.10;;;;;;;;;;5007026;28;20125;-75
2023/08/04 05:44:34;;;;;;;3.50;2.88;;;;;;;;;;5010956;28;20066;-75
2023/08/04 05:47:00;;;;;;;4.50;3.10;;;;;;;;;;5012168;28;20501;-75
2023/08/04 05:49:26;;;;;;;4.53;3.00;;;;;;;;;;5008764;28;20383;-75
2023/08/04 05:51:52;;;;;;;3.80;2.78;;;;;;;;;;5008125;28;20929;-75
2023/08/04 05:54:18;;;;;;;4.32;2.80;;;;;;;;;;5010776;28;20509;-75
2023/08/04 05:56:45;;;;;;;6.55;2.97;;;;;;;;;;4982000;28;20052;-75
2023/08/04 05:59:11;;;;;;;4.35;2.20;;;;;;;;;;5027451;28;20041;-75
2023/08/04 06:01:37;;;;;;;4.30;2.45;;;;;;;;;;5014369;28;20468;-74
2023/08/04 06:04:03;;;;;;;3.15;2.10;;;;;;;;;;5011182;28;20128;-75
2023/08/04 06:06:29;;;;;;;6.22;2.42;;;;;;;;;;4990849;28;20050;-75
2023/08/04 06:08:55;;;;;;;2.92;2.13;;;;;;;;;;4982208;28;20045;-75
2023/08/04 06:11:21;;;;;;;2.00;1.90;;;;;;;;;;5008378;28;20402;-74
2023/08/04 06:13:47;;;;;;;2.22;2.00;;;;;;;;;;4979433;28;20482;-75
2023/08/04 06:16:14;;;;;;;3.50;2.38;;;;;;;;;;5005490;28;20088;-74
2023/08/04 06:18:40;;;;;;;4.18;2.67;;;;;;;;;;5004356;28;20038;-75
2023/08/04 06:21:06;;;;;;;5.80;2.55;;;;;;;;;;4980592;28;20058;-74
2023/08/04 06:23:32;;;;;;;6.72;3.65;;;;;;;;;;4977052;28;20081;-75
2023/08/04 06:25:58;;;;;;;7.40;3.05;;;;;;;;;;4986048;28;20050;-75
2023/08/04 06:28:24;;;;;;;7.43;3.30;;;;;;;;;;4984344;28;20127;-74
2023/08/04 06:30:51;;;;;;;4.80;2.97;;;;;;;;;;5008995;28;20084;-74
2023/08/04 06:33:17;;;;;;;5.32;3.38;;;;;;;;;;5001683;28;20047;-74
2023/08/04 06:35:44;;;;;;;6.53;3.22;;;;;;;;;;4999370;28;20045;-75
2023/08/04 06:38:10;;;;;;;8.90;3.33;;;;;;;;;;5006234;28;20088;-74
2023/08/04 06:40:36;;;;;;;7.82;3.10;;;;;;;;;;5006939;28;20064;-74
2023/08/04 06:43:02;;;;;;;9.93;3.58;;;;;;;;;;5006612;28;20080;-74
2023/08/04 06:45:29;;;;;;;8.68;3.53;;;;;;;;;;5004756;28;20052;-75
2023/08/04 06:47:55;;;;;;;10.30;3.20;;;;;;;;;;5005373;28;20088;-74
2023/08/04 06:50:21;;;;;;;9.32;3.30;;;;;;;;;;4998545;28;20397;-74
2023/08/04 06:52:48;;;;;;;6.03;3.33;;;;;;;;;;5007940;28;20066;-74
2023/08/04 06:55:14;;;;;;;9.60;3.22;;;;;;;;;;5009128;28;20088;-75
2023/08/04 06:57:40;;;;;;;11.02;3.67;;;;;;;;;;5006267;28;20451;-73
2023/08/04 07:00:08;;;;;;;9.07;3.67;;;;;;;;;;5008594;28;20397;-74
2023/08/04 07:02:34;;;;;;;6.35;2.72;;;;;;;;;;5007577;28;20065;-74
2023/08/04 07:05:01;;;;;;;11.15;3.42;;;;;;;;;;5009655;28;20041;-74
2023/08/04 07:07:27;;;;;;;8.15;3.15;;;;;;;;;;5000124;28;20136;-73
2023/08/04 07:09:53;;;;;;;9.13;3.22;;;;;;;;;;5010539;28;20236;-74
2023/08/04 07:12:19;;;;;;;7.07;3.22;;;;;;;;;;5010981;28;20046;-74
2023/08/04 07:14:45;;;;;;;8.88;3.25;;;;;;;;;;5003336;28;20053;-74
2023/08/04 07:17:11;;;;;;;4.30;2.58;;;;;;;;;;5009847;28;20041;-73
2023/08/04 07:19:37;;;;;;;5.80;2.65;;;;;;;;;;5009705;28;20115;-74
2023/08/04 07:22:03;;;;;;;5.97;2.40;;;;;;;;;;5001561;28;20072;-73
2023/08/04 07:24:30;;;;;;;4.53;2.60;;;;;;;;;;5006885;28;20049;-74
2023/08/04 07:26:56;;;;;;;6.20;2.50;;;;;;;;;;5010592;28;20038;-75
2023/08/04 07:29:22;;;;;;;8.68;3.45;;;;;;;;;;5005771;28;20046;-74
2023/08/04 07:31:48;;;;;;;11.02;3.15;;;;;;;;;;5010014;28;20054;-74
2023/08/04 07:34:14;;;;;;;8.82;3.00;;;;;;;;;;5001412;28;20124;-73
2023/08/04 07:36:40;;;;;;;8.70;3.05;;;;;;;;;;4999574;28;20044;-73
2023/08/04 07:39:06;;;;;;;4.65;3.15;;;;;;;;;;5010691;28;20046;-74
2023/08/04 07:41:32;;;;;;;7.78;3.33;;;;;;;;;;5011262;28;20046;-74
2023/08/04 07:43:58;;;;;;;10.48;3.50;;;;;;;;;;5014252;28;20498;-73
2023/08/04 07:46:29;;;;;;;8.82;3.35;;;;;;;;;;5010021;28;20046;-74
2023/08/04 07:48:55;;;;;;;7.93;3.20;;;;;;;;;;5013592;28;20060;-73
2023/08/04 07:51:21;;;;;;;6.00;3.20;;;;;;;;;;5013494;28;20046;-74
2023/08/04 07:53:47;;;;;;;8.43;3.17;;;;;;;;;;5007570;28;20509;-74
2023/08/04 07:56:13;;;;;;;7.00;3.03;;;;;;;;;;5012533;28;20049;-75
2023/08/04 07:58:40;;;;;;;7.50;3.33;;;;;;;;;;5010212;28;20053;-74
2023/08/04 08:01:06;;;;;;;9.98;3.40;;;;;;;;;;5012894;28;20056;-74
2023/08/04 08:03:32;;;;;;;9.32;3.50;;;;;;;;;;5005668;28;20128;-74
2023/08/04 08:05:59;;;;;;;9.80;3.00;;;;;;;;;;5012300;28;22429;-74
2023/08/04 08:08:25;;;;;;;7.60;3.05;;;;;;;;;;5011319;28;20156;-74
2023/08/04 08:10:51;;;;;;;9.65;3.60;;;;;;;;;;5011764;28;20075;-73
2023/08/04 08:13:17;;;;;;;9.10;3.83;;;;;;;;;;5010937;28;20070;-74
2023/08/04 08:15:43;;;;;;;8.30;3.70;;;;;;;;;;5008392;28;20049;-73
2023/08/04 08:18:09;;;;;;;10.02;3.60;;;;;;;;;;4998731;28;20042;-73
2023/08/04 08:20:39;;;;;;;11.27;4.05;;;;;;;;;;5013875;28;20061;-73
2023/08/04 08:23:05;;;;;;;6.93;3.42;;;;;;;;;;5010405;28;20100;-74
2023/08/04 08:25:31;;;;;;;12.02;3.80;;;;;;;;;;5009196;28;20049;-74
2023/08/04 08:27:57;;;;;;;11.07;3.70;;;;;;;;;;5007972;28;20399;-73
2023/08/04 08:30:23;;;;;;;7.03;3.00;;;;;;;;;;5010824;28;20054;-73
2023/08/04 08:32:49;;;;;;;9.15;3.15;;;;;;;;;;5007251;28;20046;-74
2023/08/04 08:35:15;;;;;;;6.85;3.10;;;;;;;;;;5012057;28;20041;-73
2023/08/04 08:37:41;;;;;;;6.32;3.25;;;;;;;;;;5015912;28;20053;-73
2023/08/04 08:40:07;;;;;;;10.43;3.72;;;;;;;;;;5011983;28;20048;-73
2023/08/04 08:42:34;;;;;;;10.80;3.42;;;;;;;;;;5010836;28;20092;-73
2023/08/04 08:45:00;;;;;;;9.82;3.22;;;;;;;;;;5010152;28;20128;-73
2023/08/04 08:47:29;;;;;;;7.95;3.20;;;;;;;;;;5008505;28;20084;-75
2023/08/04 08:49:59;;;;;;;7.78;3.10;;;;;;;;;;5005551;28;20057;-75
2023/08/04 08:52:29;;;;;;;14.65;3.38;;;;;;;;;;5017756;28;20057;-75
2023/08/04 08:54:55;;;;;;;10.63;3.08;;;;;;;;;;5006000;28;20038;-74
2023/08/04 08:57:21;;;;;;;8.77;3.10;;;;;;;;;;5012271;28;20049;-74
2023/08/04 08:59:49;;;;;;;9.27;3.28;;;;;;;;;;5010452;28;20386;-74
2023/08/04 09:02:15;;;;;;;7.20;2.92;;;;;;;;;;4994148;28;20096;-74
2023/08/04 09:04:41;;;;;;;4.43;2.72;;;;;;;;;;5006822;28;20057;-74
2023/08/04 09:07:07;;;;;;;10.65;3.30;;;;;;;;;;5011086;28;20050;-74
2023/08/04 09:09:35;;;;;;;8.45;3.30;;;;;;;;;;5006234;28;20438;-74
2023/08/04 09:12:01;;;;;;;6.10;3.55;;;;;;;;;;5006353;28;20056;-74
2023/08/04 09:14:28;;;;;;;12.05;3.20;;;;;;;;;;5006747;28;20065;-74
2023/08/04 09:16:54;;;;;;;7.43;3.30;;;;;;;;;;5006886;28;20584;-74
2023/08/04 09:19:20;;;;;;;12.02;4.80;;;;;;;;;;4997788;28;20050;-75
2023/08/04 09:21:46;;;;;;;10.13;3.35;;;;;;;;;;5002684;28;20497;-73
2023/08/04 09:24:13;;;;;;;6.20;2.80;;;;;;;;;;5002638;28;20134;-74
2023/08/04 09:26:43;;;;;;;8.23;3.10;;;;;;;;;;5009645;28;20045;-73
2023/08/04 09:29:09;;;;;;;6.68;3.00;;;;;;;;;;5006058;28;20064;-73
2023/08/04 09:31:36;;;;;;;10.68;3.22;;;;;;;;;;5011071;28;20076;-74
2023/08/04 09:34:04;;;;;;;8.77;3.00;;;;;;;;;;5026142;28;20089;-75
2023/08/04 09:36:30;;;;;;;8.50;3.10;;;;;;;;;;5011767;28;20045;-75
2023/08/04 09:39:04;;;;;;;7.28;2.70;;;;;;;;;;5007599;28;20494;-75
2023/08/04 09:41:33;;;;;;;9.18;3.25;;;;;;;;;;5010590;28;20061;-74
2023/08/04 09:44:03;;;;;;;7.30;3.10;;;;;;;;;;5010133;28;20057;-74
2023/08/04 09:46:29;;;;;;;8.63;3.58;;;;;;;;;;5002764;28;20053;-75
2023/08/04 09:48:58;;;;;;;6.28;2.80;;;;;;;;;;5011688;28;20048;-73
2023/08/04 09:51:24;;;;;;;7.55;3.30;;;;;;;;;;5008354;28;20050;-75
2023/08/04 09:53:51;;;;;;;8.85;3.28;;;;;;;;;;5024582;28;20077;-74
2023/08/04 09:56:18;;;;;;;6.57;2.75;;;;;;;;;;5024938;28;20054;-74
2023/08/04 09:58:44;;;;;;;9.13;2.70;;;;;;;;;;5004530;28;20065;-75
2023/08/04 10:01:11;;;;;;;8.90;2.83;;;;;;;;;;5011022;28;20055;-74
2023/08/04 10:03:38;;;;;;;8.30;2.97;;;;;;;;;;5003300;28;20045;-74
2023/08/04 10:06:04;;;;;;;6.93;2.75;;;;;;;;;;5001899;28;20049;-75
2023/08/04 10:08:31;;;;;;;6.18;2.65;;;;;;;;;;5010125;28;20069;-75
2023/08/04 10:10:58;;;;;;;9.23;2.90;;;;;;;;;;5007933;28;20442;-73
2023/08/04 10:13:27;;;;;;;7.75;2.97;;;;;;;;;;5006060;28;20121;-73
2023/08/04 10:15:57;;;;;;;6.00;2.80;;;;;;;;;;5010252;28;20406;-74
2023/08/04 10:18:24;;;;;;;6.82;2.88;;;;;;;;;;5001377;28;20077;-74
2023/08/04 10:20:51;;;;;;;6.22;2.50;;;;;;;;;;5007808;28;20049;-75
2023/08/04 10:23:17;;;;;;;4.03;2.05;;;;;;;;;;5005609;28;20058;-74
2023/08/04 10:25:59;;;;;;;4.38;2.40;;;;;;;;;;5011635;28;20042;-73
2023/08/04 10:28:25;;;;;;;3.83;2.10;;;;;;;;;;5001602;28;20061;-73
2023/08/04 10:31:11;;;;;;;8.18;2.83;;;;;;;;;;4985523;28;20054;-74
2023/08/04 10:33:38;;;;;;;3.65;2.15;;;;;;;;;;5001630;28;20054;-74
2023/08/04 10:36:10;;;;;;;6.78;2.20;;;;;;;;;;5005794;28;20050;-74
2023/08/04 10:38:46;;;;;;;4.22;2.00;;;;;;;;;;4989482;28;20100;-74
2023/08/04 10:41:13;;;;;;;6.47;2.30;;;;;;;;;;4985209;28;20518;-74
2023/08/04 10:43:39;;;;;;;6.65;2.28;;;;;;;;;;5011051;28;20485;-75
2023/08/04 10:46:10;;;;;;;4.45;2.40;;;;;;;;;;5007437;28;20519;-75
2023/08/04 10:48:38;;;;;;;5.35;2.38;;;;;;;;;;5013435;28;20037;-75
2023/08/04 10:51:04;;;;;;;6.25;2.47;;;;;;;;;;5008362;28;20049;-75
2023/08/04 10:53:30;;;;;;;4.20;2.58;;;;;;;;;;5010181;28;20041;-75
2023/08/04 10:55:57;;;;;;;4.50;2.40;;;;;;;;;;4986673;28;20061;-75
2023/08/04 10:58:24;;;;;;;4.43;1.90;;;;;;;;;;5007531;28;20056;-75
2023/08/04 11:00:50;;;;;;;3.45;1.80;;;;;;;;;;5011468;28;20441;-75
2023/08/04 11:03:23;;;;;;;4.40;2.00;;;;;;;;;;4999829;28;20576;-75
2023/08/04 11:05:50;;;;;;;3.65;2.00;;;;;;;;;;5009613;28;20056;-75
2023/08/04 11:08:17;;;;;;;4.30;2.08;;;;;;;;;;4988743;28;20058;-74
2023/08/04 11:10:49;;;;;;;3.70;1.90;;;;;;;;;;5001049;28;20046;-74
2023/08/04 11:13:17;;;;;;;3.58;2.13;;;;;;;;;;5003690;28;20050;-74
2023/08/04 11:15:44;;;;;;;5.35;2.10;;;;;;;;;;4983740;28;20049;-74
2023/08/04 11:18:13;;;;;;;3.35;2.17;;;;;;;;;;5013627;28;20042;-74
2023/08/04 11:20:43;;;;;;;3.88;2.28;;;;;;;;;;5011158;28;20665;-73
2023/08/04 11:23:10;;;;;;;5.63;2.30;;;;;;;;;;5004675;28;20577;-72
2023/08/04 11:25:36;;;;;;;5.47;2.35;;;;;;;;;;5000053;28;20108;-73
2023/08/04 11:28:03;;;;;;;5.60;2.80;;;;;;;;;;4997942;28;20050;-74
2023/08/04 11:30:29;;;;;;;7.18;2.70;;;;;;;;;;5013051;28;20050;-74
2023/08/04 11:32:55;;;;;;;6.22;2.88;;;;;;;;;;5008905;28;20501;-73
2023/08/04 11:35:21;;;;;;;5.82;2.58;;;;;;;;;;5010400;28;20077;-73
2023/08/04 11:37:47;;;;;;;8.25;2.55;;;;;;;;;;5010911;28;20047;-73
2023/08/04 11:40:20;;;;;;;8.45;2.78;;;;;;;;;;5009268;28;20038;-74
2023/08/04 11:42:46;;;;;;;;;;;;;;;;;;5008965;28;20041;-73
2023/08/04 11:45:13;;;;;;;10.15;2.88;;;;;;;;;;5012474;28;19948;-74
2023/08/04 11:47:39;;;;;;;9.57;2.90;;;;;;;;;;5011835;28;20121;-74
2023/08/04 11:50:05;;;;;;;7.43;2.90;;;;;;;;;;4999348;28;20089;-74
2023/08/04 11:52:31;;;;;;;7.50;3.08;;;;;;;;;;5005294;28;20046;-74
2023/08/04 11:54:57;;;;;;;7.20;2.83;;;;;;;;;;5013573;28;20053;-74
2023/08/04 11:57:23;;;;;;;5.82;2.90;;;;;;;;;;5012133;28;20055;-74
2023/08/04 11:59:50;;;;;;;8.13;3.20;;;;;;;;;;5009137;28;20058;-74
2023/08/04 12:02:16;;;;;;;11.90;3.28;;;;;;;;;;5010193;28;20061;-74
2023/08/04 12:04:43;;;;;;;8.60;3.42;;;;;;;;;;4996877;28;20038;-83
2023/08/04 12:07:10;;;;;;;6.72;3.78;;;;;;;;;;5009495;28;20083;-74
2023/08/04 12:09:36;;;;;;;8.98;3.35;;;;;;;;;;5011553;28;20053;-74
2023/08/04 12:12:05;;;;;;;7.05;3.17;;;;;;;;;;4998865;28;20048;-73
2023/08/04 12:14:31;;;;;;;8.27;3.40;;;;;;;;;;5001694;28;20089;-74
2023/08/04 12:17:00;;;;;;;7.15;3.35;;;;;;;;;;5004984;28;20513;-73
2023/08/04 12:19:27;;;;;;;7.38;3.47;;;;;;;;;;5008581;28;20449;-74
2023/08/04 12:21:54;;;;;;;10.88;3.70;;;;;;;;;;5007955;28;20108;-74
2023/08/04 12:24:20;;;;;;;9.25;3.35;;;;;;;;;;5010278;28;20065;-74
2023/08/04 12:26:46;;;;;;;6.30;3.20;;;;;;;;;;5005998;28;20092;-73
2023/08/04 12:29:12;;;;;;;8.55;3.60;;;;;;;;;;5005753;28;20050;-73
2023/08/04 12:31:38;;;;;;;7.80;3.20;;;;;;;;;;5013566;28;20038;-73
2023/08/04 12:34:06;;;;;;;5.85;3.25;;;;;;;;;;5012080;28;20042;-74
2023/08/04 12:36:32;;;;;;;7.90;3.53;;;;;;;;;;5029231;28;20042;-74
2023/08/04 12:38:58;;;;;;;10.10;3.58;;;;;;;;;;5008911;28;20046;-73
2023/08/04 12:41:24;;;;;;;8.98;3.22;;;;;;;;;;5008939;28;20079;-73
2023/08/04 12:43:51;;;;;;;8.30;3.22;;;;;;;;;;5004746;28;20041;-73
2023/08/04 12:46:17;;;;;;;12.20;3.30;;;;;;;;;;5004728;28;20492;-73
2023/08/04 12:48:43;;;;;;;6.55;3.25;;;;;;;;;;5012055;28;20050;-73
2023/08/04 12:51:09;;;;;;;6.07;3.15;;;;;;;;;;5014051;28;20084;-72
2023/08/04 12:53:35;;;;;;;8.43;3.42;;;;;;;;;;5026038;28;20688;-72
2023/08/04 12:56:01;;;;;;;9.15;3.33;;;;;;;;;;5008682;28;20042;-73
2023/08/04 12:58:27;;;;;;;5.13;3.10;;;;;;;;;;5014605;28;20050;-73
2023/08/04 13:00:53;;;;;;;10.15;3.50;;;;;;;;;;5009615;28;20048;-73
2023/08/04 13:03:19;;;;;;;7.00;3.42;;;;;;;;;;5006400;28;20049;-73
2023/08/04 13:05:45;;;;;;;9.85;3.33;;;;;;;;;;5008812;28;20470;-73
2023/08/04 13:08:11;;;;;;;6.90;3.35;;;;;;;;;;5012047;28;20128;-73
2023/08/04 13:10:37;;;;;;;8.43;3.05;;;;;;;;;;5007400;28;20128;-73
2023/08/04 13:13:03;;;;;;;4.47;2.75;;;;;;;;;;5014461;28;20042;-73
2023/08/04 13:15:29;;;;;;;9.32;3.25;;;;;;;;;;5011024;28;20056;-73
2023/08/04 13:17:55;;;;;;;9.18;3.28;;;;;;;;;;5006189;28;20070;-73
2023/08/04 13:20:21;;;;;;;8.20;3.17;;;;;;;;;;5010362;28;20553;-73
2023/08/04 13:22:47;;;;;;;4.32;2.70;;;;;;;;;;5010100;28;20482;-73
2023/08/04 13:25:13;;;;;;;6.93;3.33;;;;;;;;;;5018048;28;20053;-73
2023/08/04 13:27:39;;;;;;;6.68;2.97;;;;;;;;;;5011511;28;20092;-72
2023/08/04 13:30:08;;;;;;;8.00;3.50;;;;;;;;;;5007532;28;20502;-72
2023/08/04 13:32:34;;;;;;;7.82;2.80;;;;;;;;;;4997913;28;20080;-74
2023/08/04 13:35:00;;;;;;;6.30;2.72;;;;;;;;;;5007226;28;20494;-74
2023/08/04 13:37:27;;;;;;;8.75;3.08;;;;;;;;;;5009383;28;20401;-74
2023/08/04 13:39:53;;;;;;;8.00;3.20;;;;;;;;;;5019583;28;20525;-74
2023/08/04 13:42:19;;;;;;;8.05;3.20;;;;;;;;;;5005421;28;20069;-74
2023/08/04 13:44:45;;;;;;;10.30;3.05;;;;;;;;;;5010304;28;20435;-74
2023/08/04 13:47:11;;;;;;;6.20;3.15;;;;;;;;;;4987482;28;20148;-74
2023/08/04 13:49:37;;;;;;;8.55;2.90;;;;;;;;;;5005472;28;20041;-73
2023/08/04 13:52:04;;;;;;;6.93;3.00;;;;;;;;;;5012254;28;20065;-73
2023/08/04 13:54:30;;;;;;;9.32;2.78;;;;;;;;;;5025531;28;20042;-74
2023/08/04 13:56:56;;;;;;;7.88;3.00;;;;;;;;;;4987861;28;20405;-73
2023/08/04 13:59:22;;;;;;;8.00;2.95;;;;;;;;;;5006305;28;20095;-73
2023/08/04 14:01:48;;;;;;;6.40;3.00;;;;;;;;;;4993882;28;20421;-74
2023/08/04 14:04:14;;;;;;;10.27;3.28;;;;;;;;;;5005900;28;20049;-73
2023/08/04 14:06:40;;;;;;;5.32;2.60;;;;;;;;;;5005652;28;20045;-73
2023/08/04 14:09:06;;;;;;;7.30;3.10;;;;;;;;;;4980578;28;20454;-73
2023/08/04 14:11:32;;;;;;;4.45;2.65;;;;;;;;;;4989543;28;20555;-74
2023/08/04 14:13:58;;;;;;;6.60;2.90;;;;;;;;;;4984044;28;20129;-73
2023/08/04 14:16:24;;;;;;;4.80;2.60;;;;;;;;;;4993255;28;20049;-73
2023/08/04 14:18:50;;;;;;;5.15;2.97;;;;;;;;;;5010024;28;20128;-73
2023/08/04 14:21:16;;;;;;;7.13;2.60;;;;;;;;;;5008091;28;20045;-73
2023/08/04 14:23:42;;;;;;;6.55;2.75;;;;;;;;;;5020991;28;20050;-74
2023/08/04 14:26:08;;;;;;;4.72;2.42;;;;;;;;;;5001284;28;20389;-74
2023/08/04 14:28:34;;;;;;;4.55;2.33;;;;;;;;;;4999500;28;20152;-74
2023/08/04 14:31:00;;;;;;;4.85;2.40;;;;;;;;;;5004168;28;20050;-74
2023/08/04 14:33:26;;;;;;;6.53;2.47;;;;;;;;;;5003982;28;20489;-74
2023/08/04 14:35:52;;;;;;;4.85;2.08;;;;;;;;;;5009401;28;20422;-73
2023/08/04 14:38:18;;;;;;;6.32;2.30;;;;;;;;;;5012089;28;20061;-73